sensor_id;sensor_type;location;lat;lon;timestamp;pressure;altitude;pressure_sealevel;temperature;humidity
16255;BME280;8235;52.198;9.904;2023-03-05T00:01:03;101123.19;;;2.57;89.88
16255;BME280;8235;52.198;9.904;2023-03-05T00:03:31;101120.59;;;2.56;89.43
16255;BME280;8235;52.198;9.904;2023-03-05T00:05:58;101124.97;;;2.55;89.65
16255;BME280;8235;52.198;9.904;2023-03-05T00:08:24;101114.47;;;2.55;89.58
16255;BME280;8235;52.198;9.904;2023-03-05T00:10:55;101123.25;;;2.54;89.96
16255;BME280;8235;52.198;9.904;2023-03-05T00:13:21;101116.28;;;2.52;90.35
16255;BME280;8235;52.198;9.904;2023-03-05T00:15:47;101118.06;;;2.51;89.76
16255;BME280;8235;52.198;9.904;2023-03-05T00:18:14;101103.22;;;2.50;90.47
16255;BME280;8235;52.198;9.904;2023-03-05T00:20:42;101099.66;;;2.51;89.77
16255;BME280;8235;52.198;9.904;2023-03-05T00:23:08;101094.34;;;2.53;89.77
16255;BME280;8235;52.198;9.904;2023-03-05T00:25:35;101105.75;;;2.53;89.96
16255;BME280;8235;52.198;9.904;2023-03-05T00:28:02;101103.13;;;2.53;90.64
16255;BME280;8235;52.198;9.904;2023-03-05T00:30:29;101094.34;;;2.53;90.09
16255;BME280;8235;52.198;9.904;2023-03-05T00:32:56;101100.47;;;2.53;90.49
16255;BME280;8235;52.198;9.904;2023-03-05T00:35:22;101092.59;;;2.53;90.14
16255;BME280;8235;52.198;9.904;2023-03-05T00:37:50;101095.22;;;2.53;90.41
16255;BME280;8235;52.198;9.904;2023-03-05T00:40:35;101095.25;;;2.52;89.91
16255;BME280;8235;52.198;9.904;2023-03-05T00:43:02;101089.19;;;2.50;90.08
16255;BME280;8235;52.198;9.904;2023-03-05T00:45:29;101090.09;;;2.49;90.21
16255;BME280;8235;52.198;9.904;2023-03-05T00:47:56;101087.50;;;2.47;90.71
16255;BME280;8235;52.198;9.904;2023-03-05T00:50:23;101077.84;;;2.48;90.58
16255;BME280;8235;52.198;9.904;2023-03-05T00:52:51;101078.78;;;2.45;90.24
16255;BME280;8235;52.198;9.904;2023-03-05T00:55:17;101071.75;;;2.46;89.94
16255;BME280;8235;52.198;9.904;2023-03-05T00:57:44;101065.63;;;2.45;89.98
16255;BME280;8235;52.198;9.904;2023-03-05T01:00:11;101058.66;;;2.44;89.92
16255;BME280;8235;52.198;9.904;2023-03-05T01:02:38;101057.75;;;2.45;90.06
16255;BME280;8235;52.198;9.904;2023-03-05T01:05:05;101056.84;;;2.46;90.85
16255;BME280;8235;52.198;9.904;2023-03-05T01:07:32;101054.22;;;2.46;90.80
16255;BME280;8235;52.198;9.904;2023-03-05T01:10:00;101044.59;;;2.45;90.24
16255;BME280;8235;52.198;9.904;2023-03-05T01:12:27;101044.56;;;2.47;90.12
16255;BME280;8235;52.198;9.904;2023-03-05T01:14:53;101034.97;;;2.46;90.00
16255;BME280;8235;52.198;9.904;2023-03-05T01:17:19;101039.34;;;2.45;90.22
16255;BME280;8235;52.198;9.904;2023-03-05T01:19:46;101031.47;;;2.45;89.78
16255;BME280;8235;52.198;9.904;2023-03-05T01:22:12;101031.47;;;2.45;89.47
16255;BME280;8235;52.198;9.904;2023-03-05T01:24:39;101023.66;;;2.42;90.13
16255;BME280;8235;52.198;9.904;2023-03-05T01:27:07;101023.66;;;2.42;90.24
16255;BME280;8235;52.198;9.904;2023-03-05T01:29:35;101027.16;;;2.41;89.54
16255;BME280;8235;52.198;9.904;2023-03-05T01:32:01;101013.16;;;2.40;89.24
16255;BME280;8235;52.198;9.904;2023-03-05T01:34:28;101003.50;;;2.41;89.66
16255;BME280;8235;52.198;9.904;2023-03-05T01:36:54;101005.28;;;2.40;89.23
16255;BME280;8235;52.198;9.904;2023-03-05T01:39:21;101002.69;;;2.39;89.22
16255;BME280;8235;52.198;9.904;2023-03-05T01:41:47;100999.19;;;2.38;89.32
16255;BME280;8235;52.198;9.904;2023-03-05T01:44:21;100989.56;;;2.37;89.72
16255;BME280;8235;52.198;9.904;2023-03-05T01:46:48;100985.25;;;2.35;89.83
16255;BME280;8235;52.198;9.904;2023-03-05T01:49:19;100978.19;;;2.37;89.86
16255;BME280;8235;52.198;9.904;2023-03-05T01:51:58;100980.81;;;2.37;89.86
16255;BME280;8235;52.198;9.904;2023-03-05T01:54:28;100977.38;;;2.35;89.82
16255;BME280;8235;52.198;9.904;2023-03-05T01:56:57;100974.75;;;2.35;89.35
16255;BME280;8235;52.198;9.904;2023-03-05T01:59:26;100980.91;;;2.34;89.78
16255;BME280;8235;52.198;9.904;2023-03-05T02:01:55;100975.63;;;2.34;89.76
16255;BME280;8235;52.198;9.904;2023-03-05T02:04:27;100967.75;;;2.34;89.18
16255;BME280;8235;52.198;9.904;2023-03-05T02:06:55;100968.69;;;2.33;89.82
16255;BME280;8235;52.198;9.904;2023-03-05T02:09:22;100974.75;;;2.35;89.65
16255;BME280;8235;52.198;9.904;2023-03-05T02:11:48;100964.22;;;2.35;89.28
16255;BME280;8235;52.198;9.904;2023-03-05T02:14:15;100970.34;;;2.35;89.28
16255;BME280;8235;52.198;9.904;2023-03-05T02:16:43;100961.56;;;2.36;89.53
16255;BME280;8235;52.198;9.904;2023-03-05T02:19:11;100954.59;;;2.34;89.43
16255;BME280;8235;52.198;9.904;2023-03-05T02:21:40;100962.50;;;2.34;89.29
16255;BME280;8235;52.198;9.904;2023-03-05T02:24:10;100956.38;;;2.33;89.28
16255;BME280;8235;52.198;9.904;2023-03-05T02:26:37;100954.59;;;2.34;89.86
16255;BME280;8235;52.198;9.904;2023-03-05T02:29:06;100951.13;;;2.33;89.26
16255;BME280;8235;52.198;9.904;2023-03-05T02:31:33;100953.81;;;2.32;89.47
16255;BME280;8235;52.198;9.904;2023-03-05T02:33:59;100945.88;;;2.33;89.54
16255;BME280;8235;52.198;9.904;2023-03-05T02:36:29;100948.44;;;2.35;89.47
16255;BME280;8235;52.198;9.904;2023-03-05T02:38:56;100942.44;;;2.31;89.30
16255;BME280;8235;52.198;9.904;2023-03-05T02:41:23;100937.16;;;2.33;89.45
16255;BME280;8235;52.198;9.904;2023-03-05T02:43:50;100939.72;;;2.34;90.03
16255;BME280;8235;52.198;9.904;2023-03-05T02:46:16;100933.56;;;2.35;90.13
16255;BME280;8235;52.198;9.904;2023-03-05T02:48:43;100930.03;;;2.36;89.93
16255;BME280;8235;52.198;9.904;2023-03-05T02:51:10;100933.50;;;2.37;90.04
16255;BME280;8235;52.198;9.904;2023-03-05T02:53:37;100926.50;;;2.37;89.45
16255;BME280;8235;52.198;9.904;2023-03-05T02:56:05;100928.25;;;2.37;89.80
16255;BME280;8235;52.198;9.904;2023-03-05T02:58:31;100926.50;;;2.37;89.62
16255;BME280;8235;52.198;9.904;2023-03-05T03:00:58;100922.16;;;2.35;89.43
16255;BME280;8235;52.198;9.904;2023-03-05T03:03:24;100910.78;;;2.34;89.78
16255;BME280;8235;52.198;9.904;2023-03-05T03:05:51;100916.06;;;2.34;89.71
16255;BME280;8235;52.198;9.904;2023-03-05T03:08:17;100916.00;;;2.36;90.05
16255;BME280;8235;52.198;9.904;2023-03-05T03:10:44;100908.13;;;2.36;90.19
16255;BME280;8235;52.198;9.904;2023-03-05T03:13:12;100901.06;;;2.38;90.28
16255;BME280;8235;52.198;9.904;2023-03-05T03:15:38;100903.69;;;2.38;89.92
16255;BME280;8235;52.198;9.904;2023-03-05T03:18:05;100901.94;;;2.38;89.92
16255;BME280;8235;52.198;9.904;2023-03-05T03:20:31;100896.69;;;2.38;89.96
16255;BME280;8235;52.198;9.904;2023-03-05T03:22:59;100890.56;;;2.38;90.19
16255;BME280;8235;52.198;9.904;2023-03-05T03:25:26;100891.47;;;2.37;90.62
16255;BME280;8235;52.198;9.904;2023-03-05T03:27:52;100896.72;;;2.37;90.74
16255;BME280;8235;52.198;9.904;2023-03-05T03:30:20;100882.66;;;2.38;90.58
16255;BME280;8235;52.198;9.904;2023-03-05T03:32:47;100876.56;;;2.37;90.41
16255;BME280;8235;52.198;9.904;2023-03-05T03:35:13;100872.16;;;2.38;90.74
16255;BME280;8235;52.198;9.904;2023-03-05T03:37:40;100882.63;;;2.39;90.60
16255;BME280;8235;52.198;9.904;2023-03-05T03:40:07;100878.31;;;2.37;91.27
16255;BME280;8235;52.198;9.904;2023-03-05T03:42:34;100867.81;;;2.37;90.91
16255;BME280;8235;52.198;9.904;2023-03-05T03:45:01;100868.66;;;2.37;91.31
16255;BME280;8235;52.198;9.904;2023-03-05T03:47:29;100866.03;;;2.37;91.85
16255;BME280;8235;52.198;9.904;2023-03-05T03:49:56;100864.31;;;2.36;91.47
16255;BME280;8235;52.198;9.904;2023-03-05T03:52:23;100865.22;;;2.35;91.44
16255;BME280;8235;52.198;9.904;2023-03-05T03:54:50;100859.09;;;2.35;91.84
16255;BME280;8235;52.198;9.904;2023-03-05T03:57:17;100853.84;;;2.35;91.89
16255;BME280;8235;52.198;9.904;2023-03-05T03:59:44;100844.28;;;2.32;92.64
16255;BME280;8235;52.198;9.904;2023-03-05T04:02:11;100853.09;;;2.31;92.03
16255;BME280;8235;52.198;9.904;2023-03-05T04:04:38;100852.22;;;2.31;92.76
16255;BME280;8235;52.198;9.904;2023-03-05T04:07:05;100848.72;;;2.30;93.04
16255;BME280;8235;52.198;9.904;2023-03-05T04:09:31;100848.75;;;2.29;93.37
16255;BME280;8235;52.198;9.904;2023-03-05T04:11:58;100847.00;;;2.29;93.71
16255;BME280;8235;52.198;9.904;2023-03-05T04:14:24;100846.13;;;2.29;93.42
16255;BME280;8235;52.198;9.904;2023-03-05T04:16:51;100842.66;;;2.28;94.04
16255;BME280;8235;52.198;9.904;2023-03-05T04:19:17;100836.53;;;2.28;93.95
16255;BME280;8235;52.198;9.904;2023-03-05T04:21:45;100833.91;;;2.28;94.54
16255;BME280;8235;52.198;9.904;2023-03-05T04:24:12;100833.06;;;2.26;94.56
16255;BME280;8235;52.198;9.904;2023-03-05T04:26:38;100828.72;;;2.25;94.94
16255;BME280;8235;52.198;9.904;2023-03-05T04:29:05;100822.56;;;2.26;94.68
16255;BME280;8235;52.198;9.904;2023-03-05T04:31:31;100820.75;;;2.28;94.76
16255;BME280;8235;52.198;9.904;2023-03-05T04:33:58;100819.91;;;2.27;95.41
16255;BME280;8235;52.198;9.904;2023-03-05T04:36:24;100820.75;;;2.28;95.03
16255;BME280;8235;52.198;9.904;2023-03-05T04:38:52;100819.94;;;2.26;95.03
16255;BME280;8235;52.198;9.904;2023-03-05T04:41:19;100819.03;;;2.27;95.20
16255;BME280;8235;52.198;9.904;2023-03-05T04:43:45;100817.25;;;2.27;95.75
16255;BME280;8235;52.198;9.904;2023-03-05T04:46:12;100818.16;;;2.26;95.24
16255;BME280;8235;52.198;9.904;2023-03-05T04:48:39;100816.44;;;2.25;95.88
16255;BME280;8235;52.198;9.904;2023-03-05T04:51:06;100813.84;;;2.24;95.89
16255;BME280;8235;52.198;9.904;2023-03-05T04:53:32;100814.72;;;2.24;96.30
16255;BME280;8235;52.198;9.904;2023-03-05T04:56:00;100819.09;;;2.24;95.66
16255;BME280;8235;52.198;9.904;2023-03-05T04:58:27;100816.47;;;2.24;95.93
16255;BME280;8235;52.198;9.904;2023-03-05T05:00:59;100812.94;;;2.25;95.57
16255;BME280;8235;52.198;9.904;2023-03-05T05:03:26;100807.72;;;2.23;95.61
16255;BME280;8235;52.198;9.904;2023-03-05T05:05:53;100813.84;;;2.24;95.45
16255;BME280;8235;52.198;9.904;2023-03-05T05:08:20;100813.84;;;2.24;95.40
16255;BME280;8235;52.198;9.904;2023-03-05T05:10:54;100805.13;;;2.22;96.14
16255;BME280;8235;52.198;9.904;2023-03-05T05:13:22;100806.88;;;2.23;95.94
16255;BME280;8235;52.198;9.904;2023-03-05T05:15:48;100799.03;;;2.21;95.61
16255;BME280;8235;52.198;9.904;2023-03-05T05:18:15;100801.66;;;2.21;95.45
16255;BME280;8235;52.198;9.904;2023-03-05T05:20:41;100803.41;;;2.21;95.68
16255;BME280;8235;52.198;9.904;2023-03-05T05:23:08;100799.94;;;2.20;95.82
16255;BME280;8235;52.198;9.904;2023-03-05T05:25:34;100803.41;;;2.21;95.14
16255;BME280;8235;52.198;9.904;2023-03-05T05:28:01;100795.53;;;2.21;95.80
16255;BME280;8235;52.198;9.904;2023-03-05T05:30:29;100793.81;;;2.20;95.55
16255;BME280;8235;52.198;9.904;2023-03-05T05:32:56;100793.84;;;2.18;95.92
16255;BME280;8235;52.198;9.904;2023-03-05T05:35:22;100786.81;;;2.19;95.18
16255;BME280;8235;52.198;9.904;2023-03-05T05:37:49;100788.63;;;2.17;95.73
16255;BME280;8235;52.198;9.904;2023-03-05T05:40:15;100788.63;;;2.17;95.46
16255;BME280;8235;52.198;9.904;2023-03-05T05:42:42;100791.25;;;2.17;95.29
16255;BME280;8235;52.198;9.904;2023-03-05T05:45:09;100788.66;;;2.15;95.49
16255;BME280;8235;52.198;9.904;2023-03-05T05:47:37;100789.63;;;2.13;95.87
16255;BME280;8235;52.198;9.904;2023-03-05T05:50:04;100786.09;;;2.14;95.63
16255;BME280;8235;52.198;9.904;2023-03-05T05:52:31;100779.13;;;2.13;95.59
16255;BME280;8235;52.198;9.904;2023-03-05T05:54:58;100776.47;;;2.14;94.96
16255;BME280;8235;52.198;9.904;2023-03-05T05:57:24;100782.59;;;2.15;95.72
16255;BME280;8235;52.198;9.904;2023-03-05T05:59:51;100776.47;;;2.14;95.51
16255;BME280;8235;52.198;9.904;2023-03-05T06:02:17;100779.13;;;2.13;95.37
16255;BME280;8235;52.198;9.904;2023-03-05T06:04:45;100779.13;;;2.13;95.49
16255;BME280;8235;52.198;9.904;2023-03-05T06:07:12;100772.16;;;2.12;95.30
16255;BME280;8235;52.198;9.904;2023-03-05T06:09:38;100772.16;;;2.12;94.64
16255;BME280;8235;52.198;9.904;2023-03-05T06:12:06;100775.63;;;2.12;94.67
16255;BME280;8235;52.198;9.904;2023-03-05T06:14:33;100770.38;;;2.12;94.49
16255;BME280;8235;52.198;9.904;2023-03-05T06:16:59;100772.19;;;2.10;94.88
16255;BME280;8235;52.198;9.904;2023-03-05T06:19:25;100760.81;;;2.09;94.28
16255;BME280;8235;52.198;9.904;2023-03-05T06:21:53;100770.47;;;2.09;94.72
16255;BME280;8235;52.198;9.904;2023-03-05T06:24:20;100766.03;;;2.11;94.39
16255;BME280;8235;52.198;9.904;2023-03-05T06:26:47;100766.91;;;2.12;94.79
16255;BME280;8235;52.198;9.904;2023-03-05T06:29:14;100763.38;;;2.13;94.10
16255;BME280;8235;52.198;9.904;2023-03-05T06:31:40;100752.00;;;2.12;94.38
16255;BME280;8235;52.198;9.904;2023-03-05T06:34:07;100759.84;;;2.14;94.16
16255;BME280;8235;52.198;9.904;2023-03-05T06:36:33;100756.34;;;2.13;93.68
16255;BME280;8235;52.198;9.904;2023-03-05T06:39:01;100763.25;;;2.16;94.37
16255;BME280;8235;52.198;9.904;2023-03-05T06:41:29;100760.63;;;2.16;94.01
16255;BME280;8235;52.198;9.904;2023-03-05T06:43:58;100764.94;;;2.18;93.45
16255;BME280;8235;52.198;9.904;2023-03-05T06:46:27;100757.06;;;2.18;93.46
16255;BME280;8235;52.198;9.904;2023-03-05T06:48:54;100767.53;;;2.20;94.23
16255;BME280;8235;52.198;9.904;2023-03-05T06:51:23;100770.13;;;2.21;94.08
16255;BME280;8235;52.198;9.904;2023-03-05T06:53:50;100767.50;;;2.21;93.78
16255;BME280;8235;52.198;9.904;2023-03-05T06:56:19;100760.47;;;2.22;93.61
16255;BME280;8235;52.198;9.904;2023-03-05T06:58:48;100764.81;;;2.23;94.38
16255;BME280;8235;52.198;9.904;2023-03-05T07:01:15;100773.53;;;2.25;94.40
16255;BME280;8235;52.198;9.904;2023-03-05T07:03:42;100766.56;;;2.24;93.85
16255;BME280;8235;52.198;9.904;2023-03-05T07:06:10;100765.66;;;2.25;94.45
16255;BME280;8235;52.198;9.904;2023-03-05T07:08:38;100759.50;;;2.26;94.49
16255;BME280;8235;52.198;9.904;2023-03-05T07:11:08;100764.75;;;2.26;94.57
16255;BME280;8235;52.198;9.904;2023-03-05T07:13:36;100762.97;;;2.26;95.21
16255;BME280;8235;52.198;9.904;2023-03-05T07:16:04;100762.09;;;2.27;94.74
16255;BME280;8235;52.198;9.904;2023-03-05T07:18:31;100760.28;;;2.29;94.47
16255;BME280;8235;52.198;9.904;2023-03-05T07:21:01;100750.63;;;2.30;95.15
16255;BME280;8235;52.198;9.904;2023-03-05T07:23:27;100755.88;;;2.30;94.69
16255;BME280;8235;52.198;9.904;2023-03-05T07:25:54;100752.34;;;2.31;95.04
16255;BME280;8235;52.198;9.904;2023-03-05T07:28:20;100751.38;;;2.33;95.12
16255;BME280;8235;52.198;9.904;2023-03-05T07:30:55;100748.72;;;2.35;95.14
16255;BME280;8235;52.198;9.904;2023-03-05T07:33:21;100749.56;;;2.35;95.17
16255;BME280;8235;52.198;9.904;2023-03-05T07:35:48;100751.25;;;2.38;95.29
16255;BME280;8235;52.198;9.904;2023-03-05T07:38:14;100748.63;;;2.38;95.88
16255;BME280;8235;52.198;9.904;2023-03-05T07:40:41;100748.53;;;2.41;96.16
16255;BME280;8235;52.198;9.904;2023-03-05T07:43:07;100739.72;;;2.43;96.48
16255;BME280;8235;52.198;9.904;2023-03-05T07:45:34;100738.81;;;2.44;95.95
16255;BME280;8235;52.198;9.904;2023-03-05T07:48:01;100742.31;;;2.45;95.95
16255;BME280;8235;52.198;9.904;2023-03-05T07:50:28;100740.50;;;2.47;96.01
16255;BME280;8235;52.198;9.904;2023-03-05T07:52:54;100739.56;;;2.50;96.78
16255;BME280;8235;52.198;9.904;2023-03-05T07:55:21;100744.81;;;2.50;96.33
16255;BME280;8235;52.198;9.904;2023-03-05T07:57:47;100741.28;;;2.51;96.87
16255;BME280;8235;52.198;9.904;2023-03-05T08:00:14;100741.31;;;2.49;96.03
16255;BME280;8235;52.198;9.904;2023-03-05T08:02:41;100741.34;;;2.48;96.45
16255;BME280;8235;52.198;9.904;2023-03-05T08:05:09;100740.47;;;2.49;96.09
16255;BME280;8235;52.198;9.904;2023-03-05T08:07:35;100737.88;;;2.47;95.56
16255;BME280;8235;52.198;9.904;2023-03-05T08:10:02;100736.94;;;2.50;95.67
16255;BME280;8235;52.198;9.904;2023-03-05T08:12:29;100728.22;;;2.48;95.58
16255;BME280;8235;52.198;9.904;2023-03-05T08:14:56;100732.59;;;2.47;95.47
16255;BME280;8235;52.198;9.904;2023-03-05T08:17:22;100729.94;;;2.49;94.74
16255;BME280;8235;52.198;9.904;2023-03-05T08:19:49;100730.75;;;2.51;94.78
16255;BME280;8235;52.198;9.904;2023-03-05T08:22:16;100729.78;;;2.53;94.05
16255;BME280;8235;52.198;9.904;2023-03-05T08:24:44;100726.25;;;2.54;94.68
16255;BME280;8235;52.198;9.904;2023-03-05T08:27:11;100719.22;;;2.55;94.63
16255;BME280;8235;52.198;9.904;2023-03-05T08:29:37;100721.72;;;2.59;94.39
16255;BME280;8235;52.198;9.904;2023-03-05T08:32:04;100726.91;;;2.62;94.19
16255;BME280;8235;52.198;9.904;2023-03-05T08:34:30;100722.47;;;2.64;93.62
16255;BME280;8235;52.198;9.904;2023-03-05T08:36:57;100722.47;;;2.64;92.92
16255;BME280;8235;52.198;9.904;2023-03-05T08:39:25;100729.44;;;2.65;93.18
16255;BME280;8235;52.198;9.904;2023-03-05T08:41:52;100730.31;;;2.66;93.24
16255;BME280;8235;52.198;9.904;2023-03-05T08:44:18;100729.41;;;2.67;92.37
16255;BME280;8235;52.198;9.904;2023-03-05T08:46:44;100725.88;;;2.68;92.72
16255;BME280;8235;52.198;9.904;2023-03-05T08:49:11;100728.41;;;2.69;92.18
16255;BME280;8235;52.198;9.904;2023-03-05T08:51:37;100731.88;;;2.71;92.80
16255;BME280;8235;52.198;9.904;2023-03-05T08:54:04;100724.84;;;2.72;92.38
16255;BME280;8235;52.198;9.904;2023-03-05T08:56:33;100726.56;;;2.73;92.09
16255;BME280;8235;52.198;9.904;2023-03-05T08:59:00;100714.25;;;2.75;92.04
16255;BME280;8235;52.198;9.904;2023-03-05T09:01:27;100715.91;;;2.77;91.46
16255;BME280;8235;52.198;9.904;2023-03-05T09:03:55;100718.56;;;2.77;91.12
16255;BME280;8235;52.198;9.904;2023-03-05T09:06:21;100711.53;;;2.78;90.35
16255;BME280;8235;52.198;9.904;2023-03-05T09:08:48;100711.38;;;2.83;90.84
16255;BME280;8235;52.198;9.904;2023-03-05T09:11:14;100716.47;;;2.87;90.66
16255;BME280;8235;52.198;9.904;2023-03-05T09:13:42;100712.00;;;2.91;90.08
16255;BME280;8235;52.198;9.904;2023-03-05T09:16:11;100705.75;;;2.95;90.14
16255;BME280;8235;52.198;9.904;2023-03-05T09:18:38;100709.06;;;3.01;90.17
16255;BME280;8235;52.198;9.904;2023-03-05T09:21:06;100710.66;;;3.05;89.90
16255;BME280;8235;52.198;9.904;2023-03-05T09:23:33;100695.72;;;3.06;89.01
16255;BME280;8235;52.198;9.904;2023-03-05T09:25:59;100701.00;;;3.06;88.80
16255;BME280;8235;52.198;9.904;2023-03-05T09:28:26;100693.91;;;3.08;89.37
16255;BME280;8235;52.198;9.904;2023-03-05T09:30:54;100691.22;;;3.09;89.00
16255;BME280;8235;52.198;9.904;2023-03-05T09:33:20;100693.81;;;3.11;88.70
16255;BME280;8235;52.198;9.904;2023-03-05T09:35:47;100700.75;;;3.13;87.89
16255;BME280;8235;52.198;9.904;2023-03-05T09:38:13;100699.91;;;3.13;87.56
16255;BME280;8235;52.198;9.904;2023-03-05T09:40:44;100692.06;;;3.11;87.60
16255;BME280;8235;52.198;9.904;2023-03-05T09:43:24;100695.44;;;3.15;87.54
16255;BME280;8235;52.198;9.904;2023-03-05T09:46:05;100691.00;;;3.17;87.17
16255;BME280;8235;52.198;9.904;2023-03-05T09:48:47;100703.28;;;3.17;86.63
16255;BME280;8235;52.198;9.904;2023-03-05T09:51:19;100709.31;;;3.20;87.42
16255;BME280;8235;52.198;9.904;2023-03-05T09:53:50;100704.06;;;3.20;86.80
16255;BME280;8235;52.198;9.904;2023-03-05T09:56:22;100693.63;;;3.17;86.36
16255;BME280;8235;52.198;9.904;2023-03-05T09:58:51;100698.13;;;3.13;86.36
16255;BME280;8235;52.198;9.904;2023-03-05T10:01:22;100697.25;;;3.13;87.27
16255;BME280;8235;52.198;9.904;2023-03-05T10:03:54;100691.09;;;3.14;86.75
16255;BME280;8235;52.198;9.904;2023-03-05T10:06:24;100689.22;;;3.18;87.75
16255;BME280;8235;52.198;9.904;2023-03-05T10:08:54;100682.16;;;3.20;87.90
16255;BME280;8235;52.198;9.904;2023-03-05T10:11:39;100680.09;;;3.28;88.36
16255;BME280;8235;52.198;9.904;2023-03-05T10:14:13;100684.31;;;3.33;88.83
16255;BME280;8235;52.198;9.904;2023-03-05T10:17:02;100684.28;;;3.35;88.98
16255;BME280;8235;52.198;9.904;2023-03-05T10:19:40;100685.00;;;3.40;88.64
16255;BME280;8235;52.198;9.904;2023-03-05T10:22:17;100678.88;;;3.39;87.89
16255;BME280;8235;52.198;9.904;2023-03-05T10:24:54;100687.50;;;3.43;87.49
16255;BME280;8235;52.198;9.904;2023-03-05T10:27:34;100691.81;;;3.45;88.25
16255;BME280;8235;52.198;9.904;2023-03-05T10:30:11;100687.25;;;3.51;87.50
16255;BME280;8235;52.198;9.904;2023-03-05T10:32:49;100688.88;;;3.55;87.93
16255;BME280;8235;52.198;9.904;2023-03-05T10:35:33;100677.38;;;3.57;87.60
16255;BME280;8235;52.198;9.904;2023-03-05T10:38:32;100670.09;;;3.64;88.44
16255;BME280;8235;52.198;9.904;2023-03-05T10:41:07;100674.31;;;3.69;88.16
16255;BME280;8235;52.198;9.904;2023-03-05T10:43:44;100665.34;;;3.75;88.61
16255;BME280;8235;52.198;9.904;2023-03-05T10:46:15;100661.66;;;3.79;87.66
16255;BME280;8235;52.198;9.904;2023-03-05T10:48:48;100665.00;;;3.84;87.85
16255;BME280;8235;52.198;9.904;2023-03-05T10:51:19;100660.28;;;3.94;88.09
16255;BME280;8235;52.198;9.904;2023-03-05T10:53:54;100651.06;;;4.05;88.12
16255;BME280;8235;52.198;9.904;2023-03-05T10:56:23;100649.81;;;4.15;87.62
16255;BME280;8235;52.198;9.904;2023-03-05T10:58:50;100643.41;;;4.23;87.25
16255;BME280;8235;52.198;9.904;2023-03-05T11:01:22;100637.31;;;4.21;84.89
16255;BME280;8235;52.198;9.904;2023-03-05T11:03:53;100642.47;;;4.24;84.66
16255;BME280;8235;52.198;9.904;2023-03-05T11:06:29;100632.69;;;4.27;83.73
16255;BME280;8235;52.198;9.904;2023-03-05T11:09:14;100630.78;;;4.31;83.40
16255;BME280;8235;52.198;9.904;2023-03-05T11:11:41;100622.75;;;4.34;83.26
16255;BME280;8235;52.198;9.904;2023-03-05T11:14:22;100622.53;;;4.40;82.67
16255;BME280;8235;52.198;9.904;2023-03-05T11:16:54;100620.69;;;4.42;82.39
16255;BME280;8235;52.198;9.904;2023-03-05T11:19:26;100620.63;;;4.43;81.31
16255;BME280;8235;52.198;9.904;2023-03-05T11:22:07;100619.72;;;4.44;81.00
16255;BME280;8235;52.198;9.904;2023-03-05T11:24:38;100611.88;;;4.43;81.00
16255;BME280;8235;52.198;9.904;2023-03-05T11:27:22;100609.34;;;4.40;79.50
16255;BME280;8235;52.198;9.904;2023-03-05T11:29:49;100606.75;;;4.38;79.63
16255;BME280;8235;52.198;9.904;2023-03-05T11:32:20;100605.97;;;4.36;79.26
16255;BME280;8235;52.198;9.904;2023-03-05T11:34:48;100598.09;;;4.35;79.25
16255;BME280;8235;52.198;9.904;2023-03-05T11:37:22;100602.56;;;4.33;78.43
16255;BME280;8235;52.198;9.904;2023-03-05T11:40:07;100594.81;;;4.30;78.28
16255;BME280;8235;52.198;9.904;2023-03-05T11:42:39;100587.00;;;4.27;78.40
16255;BME280;8235;52.198;9.904;2023-03-05T11:45:13;100593.94;;;4.29;78.38
16255;BME280;8235;52.198;9.904;2023-03-05T11:47:43;100586.09;;;4.28;78.79
16255;BME280;8235;52.198;9.904;2023-03-05T11:50:19;100588.78;;;4.26;78.52
16255;BME280;8235;52.198;9.904;2023-03-05T11:52:47;100580.13;;;4.23;78.72
16255;BME280;8235;52.198;9.904;2023-03-05T11:55:16;100584.59;;;4.21;79.12
16255;BME280;8235;52.198;9.904;2023-03-05T11:57:49;100571.47;;;4.19;79.47
16255;BME280;8235;52.198;9.904;2023-03-05T12:00:18;100579.31;;;4.21;79.91
16255;BME280;8235;52.198;9.904;2023-03-05T12:02:50;100574.00;;;4.22;80.42
16255;BME280;8235;52.198;9.904;2023-03-05T12:05:19;100574.88;;;4.23;80.53
16255;BME280;8235;52.198;9.904;2023-03-05T12:07:48;100571.38;;;4.22;80.27
16255;BME280;8235;52.198;9.904;2023-03-05T12:10:17;100560.75;;;4.24;80.26
16255;BME280;8235;52.198;9.904;2023-03-05T12:12:49;100556.28;;;4.26;80.54
16255;BME280;8235;52.198;9.904;2023-03-05T12:15:28;100554.56;;;4.25;80.41
16255;BME280;8235;52.198;9.904;2023-03-05T12:18:05;100546.66;;;4.25;80.02
16255;BME280;8235;52.198;9.904;2023-03-05T12:20:41;100538.75;;;4.25;79.81
16255;BME280;8235;52.198;9.904;2023-03-05T12:23:13;100531.66;;;4.27;79.76
16255;BME280;8235;52.198;9.904;2023-03-05T12:25:46;100522.63;;;4.32;80.14
16255;BME280;8235;52.198;9.904;2023-03-05T12:28:14;100524.09;;;4.39;79.35
16255;BME280;8235;52.198;9.904;2023-03-05T12:30:56;100520.31;;;4.46;79.29
16255;BME280;8235;52.198;9.904;2023-03-05T12:33:32;100520.00;;;4.54;79.51
16255;BME280;8235;52.198;9.904;2023-03-05T12:36:33;100510.91;;;4.61;78.91
16255;BME280;8235;52.198;9.904;2023-03-05T12:39:00;100516.84;;;4.66;78.28
16255;BME280;8235;52.198;9.904;2023-03-05T12:41:36;100515.06;;;4.67;78.39
16255;BME280;8235;52.198;9.904;2023-03-05T12:44:24;100504.38;;;4.70;78.30
16255;BME280;8235;52.198;9.904;2023-03-05T12:47:16;100506.03;;;4.72;77.64
16255;BME280;8235;52.198;9.904;2023-03-05T12:49:45;100505.97;;;4.74;77.63
16255;BME280;8235;52.198;9.904;2023-03-05T12:52:21;100490.09;;;4.75;77.64
16255;BME280;8235;52.198;9.904;2023-03-05T12:54:58;100489.84;;;4.81;77.74
16255;BME280;8235;52.198;9.904;2023-03-05T12:57:27;100486.13;;;4.85;77.79
16255;BME280;8235;52.198;9.904;2023-03-05T12:59:59;100475.38;;;4.90;77.60
16255;BME280;8235;52.198;9.904;2023-03-05T13:02:34;100478.69;;;4.95;77.49
16255;BME280;8235;52.198;9.904;2023-03-05T13:05:06;100476.00;;;4.97;77.14
16255;BME280;8235;52.198;9.904;2023-03-05T13:07:41;100475.88;;;5.00;77.16
16255;BME280;8235;52.198;9.904;2023-03-05T13:10:21;100468.72;;;5.02;76.78
16255;BME280;8235;52.198;9.904;2023-03-05T13:12:49;100457.03;;;5.07;76.15
16255;BME280;8235;52.198;9.904;2023-03-05T13:15:17;100459.56;;;5.10;75.59
16255;BME280;8235;52.198;9.904;2023-03-05T13:17:51;100459.75;;;5.06;74.49
16255;BME280;8235;52.198;9.904;2023-03-05T13:20:26;100442.31;;;5.02;73.10